sensor_id;sensor_type;location;lat;lon;timestamp;pressure;altitude;pressure_sealevel;temperature;humidity
54146;BME280;65909;49.422;7.738;2023-05-09T00:00:30;-16276.47;;;-145.25;100.00
54146;BME280;65909;49.422;7.738;2023-05-09T00:02:55;-16276.47;;;-145.25;100.00
54146;BME280;65909;49.422;7.738;2023-05-09T00:05:21;-16276.47;;;-145.25;100.00
54146;BME280;65909;49.422;7.738;2023-05-09T00:07:47;-16276.47;;;-145.25;100.00
54146;BME280;65909;49.422;7.738;2023-05-09T00:10:13;-16276.47;;;-145.25;100.00
54146;BME280;65909;49.422;7.738;2023-05-09T00:12:38;-16276.47;;;-145.25;100.00
54146;BME280;65909;49.422;7.738;2023-05-09T00:15:04;-16276.47;;;-145.25;100.00
54146;BME280;65909;49.422;7.738;2023-05-09T00:17:32;-16276.47;;;-145.25;100.00
54146;BME280;65909;49.422;7.738;2023-05-09T00:19:58;-16276.47;;;-145.25;100.00
54146;BME280;65909;49.422;7.738;2023-05-09T00:22:26;-16276.47;;;-145.25;100.00
54146;BME280;65909;49.422;7.738;2023-05-09T00:24:51;-16276.47;;;-145.25;100.00
54146;BME280;65909;49.422;7.738;2023-05-09T00:27:17;-16276.47;;;-145.25;100.00
54146;BME280;65909;49.422;7.738;2023-05-09T00:29:43;-16276.47;;;-145.25;100.00
54146;BME280;65909;49.422;7.738;2023-05-09T00:32:08;-16276.47;;;-145.25;100.00
54146;BME280;65909;49.422;7.738;2023-05-09T00:34:34;-16276.47;;;-145.25;100.00
54146;BME280;65909;49.422;7.738;2023-05-09T00:36:59;-16276.47;;;-145.25;100.00
54146;BME280;65909;49.422;7.738;2023-05-09T00:39:25;-16276.47;;;-145.25;100.00
54146;BME280;65909;49.422;7.738;2023-05-09T00:41:51;-16276.47;;;-145.25;100.00
54146;BME280;65909;49.422;7.738;2023-05-09T00:44:17;-16276.47;;;-145.25;100.00
54146;BME280;65909;49.422;7.738;2023-05-09T00:46:42;-16276.47;;;-145.25;100.00
54146;BME280;65909;49.422;7.738;2023-05-09T00:49:08;-16276.47;;;-145.25;100.00
54146;BME280;65909;49.422;7.738;2023-05-09T00:51:35;-16276.47;;;-145.25;100.00
54146;BME280;65909;49.422;7.738;2023-05-09T00:54:01;-16276.47;;;-145.25;100.00
54146;BME280;65909;49.422;7.738;2023-05-09T00:56:26;-16276.47;;;-145.25;100.00
54146;BME280;65909;49.422;7.738;2023-05-09T00:58:52;-16276.47;;;-145.25;100.00
54146;BME280;65909;49.422;7.738;2023-05-09T01:01:17;-16276.47;;;-145.25;100.00
54146;BME280;65909;49.422;7.738;2023-05-09T01:03:43;-16276.47;;;-145.25;100.00
54146;BME280;65909;49.422;7.738;2023-05-09T01:06:34;-16276.47;;;-145.25;100.00
54146;BME280;65909;49.422;7.738;2023-05-09T01:12:15;-16276.47;;;-145.25;100.00
54146;BME280;65909;49.422;7.738;2023-05-09T01:15:00;-16276.47;;;-145.25;100.00
54146;BME280;65909;49.422;7.738;2023-05-09T01:17:37;-16276.47;;;-145.25;100.00
54146;BME280;65909;49.422;7.738;2023-05-09T01:20:29;-16276.47;;;-145.25;100.00
54146;BME280;65909;49.422;7.738;2023-05-09T01:25:48;-16276.47;;;-145.25;100.00
54146;BME280;65909;49.422;7.738;2023-05-09T01:31:14;-16276.47;;;-145.25;100.00
54146;BME280;65909;49.422;7.738;2023-05-09T01:33:41;-16276.47;;;-145.25;100.00
54146;BME280;65909;49.422;7.738;2023-05-09T01:36:11;-16276.47;;;-145.25;100.00
54146;BME280;65909;49.422;7.738;2023-05-09T01:38:41;-16276.47;;;-145.25;100.00
54146;BME280;65909;49.422;7.738;2023-05-09T01:41:10;-16276.47;;;-145.25;100.00
54146;BME280;65909;49.422;7.738;2023-05-09T01:43:37;-16276.47;;;-145.25;100.00
54146;BME280;65909;49.422;7.738;2023-05-09T01:46:05;-16276.47;;;-145.25;100.00
54146;BME280;65909;49.422;7.738;2023-05-09T01:48:34;-16276.47;;;-145.25;100.00
54146;BME280;65909;49.422;7.738;2023-05-09T01:51:01;-16276.47;;;-145.25;100.00
54146;BME280;65909;49.422;7.738;2023-05-09T01:53:28;-16276.47;;;-145.25;100.00
54146;BME280;65909;49.422;7.738;2023-05-09T01:55:55;-16276.47;;;-145.25;100.00
54146;BME280;65909;49.422;7.738;2023-05-09T01:58:22;-16276.47;;;-145.25;100.00
54146;BME280;65909;49.422;7.738;2023-05-09T02:00:50;-16276.47;;;-145.25;100.00
54146;BME280;65909;49.422;7.738;2023-05-09T02:03:16;-16276.47;;;-145.25;100.00
54146;BME280;65909;49.422;7.738;2023-05-09T02:05:41;-16276.47;;;-145.25;100.00
54146;BME280;65909;49.422;7.738;2023-05-09T02:08:07;-16276.47;;;-145.25;100.00
54146;BME280;65909;49.422;7.738;2023-05-09T02:10:34;-16276.47;;;-145.25;100.00
54146;BME280;65909;49.422;7.738;2023-05-09T02:13:00;-16276.47;;;-145.25;100.00
54146;BME280;65909;49.422;7.738;2023-05-09T02:15:26;-16276.47;;;-145.25;100.00
54146;BME280;65909;49.422;7.738;2023-05-09T02:17:53;-16276.47;;;-145.25;100.00
54146;BME280;65909;49.422;7.738;2023-05-09T02:20:18;-16276.47;;;-145.25;100.00
54146;BME280;65909;49.422;7.738;2023-05-09T02:22:44;-16276.47;;;-145.25;100.00
54146;BME280;65909;49.422;7.738;2023-05-09T02:25:11;-16276.47;;;-145.25;100.00
54146;BME280;65909;49.422;7.738;2023-05-09T02:27:39;-16276.47;;;-145.25;100.00
54146;BME280;65909;49.422;7.738;2023-05-09T02:30:08;-16276.47;;;-145.25;100.00
54146;BME280;65909;49.422;7.738;2023-05-09T02:32:36;-16276.47;;;-145.25;100.00
54146;BME280;65909;49.422;7.738;2023-05-09T02:35:03;-16276.47;;;-145.25;100.00
54146;BME280;65909;49.422;7.738;2023-05-09T02:37:30;-16276.47;;;-145.25;100.00
54146;BME280;65909;49.422;7.738;2023-05-09T02:39:56;-16276.47;;;-145.25;100.00
54146;BME280;65909;49.422;7.738;2023-05-09T02:42:24;-16276.47;;;-145.25;100.00
54146;BME280;65909;49.422;7.738;2023-05-09T02:44:53;-16276.47;;;-145.25;100.00
54146;BME280;65909;49.422;7.738;2023-05-09T02:47:19;-16276.47;;;-145.25;100.00
54146;BME280;65909;49.422;7.738;2023-05-09T02:49:45;-16276.47;;;-145.25;100.00
54146;BME280;65909;49.422;7.738;2023-05-09T02:52:10;-16276.47;;;-145.25;100.00
54146;BME280;65909;49.422;7.738;2023-05-09T02:54:36;-16276.47;;;-145.25;100.00
54146;BME280;65909;49.422;7.738;2023-05-09T02:57:02;-16276.47;;;-145.25;100.00
54146;BME280;65909;49.422;7.738;2023-05-09T02:59:28;-16276.47;;;-145.25;100.00
54146;BME280;65909;49.422;7.738;2023-05-09T03:01:53;-16276.47;;;-145.25;100.00
54146;BME280;65909;49.422;7.738;2023-05-09T03:04:18;-16276.47;;;-145.25;100.00
54146;BME280;65909;49.422;7.738;2023-05-09T03:06:44;-16276.47;;;-145.25;100.00
54146;BME280;65909;49.422;7.738;2023-05-09T03:09:09;-16276.47;;;-145.25;100.00
54146;BME280;65909;49.422;7.738;2023-05-09T03:11:35;-16276.47;;;-145.25;100.00
54146;BME280;65909;49.422;7.738;2023-05-09T03:14:01;-16276.47;;;-145.25;100.00
54146;BME280;65909;49.422;7.738;2023-05-09T03:16:27;-16276.47;;;-145.25;100.00
54146;BME280;65909;49.422;7.738;2023-05-09T03:18:52;-16276.47;;;-145.25;100.00
54146;BME280;65909;49.422;7.738;2023-05-09T03:21:18;-16276.47;;;-145.25;100.00
54146;BME280;65909;49.422;7.738;2023-05-09T03:23:43;-16276.47;;;-145.25;100.00
54146;BME280;65909;49.422;7.738;2023-05-09T03:26:08;-16276.47;;;-145.25;100.00
54146;BME280;65909;49.422;7.738;2023-05-09T03:28:34;-16276.47;;;-145.25;100.00
54146;BME280;65909;49.422;7.738;2023-05-09T03:30:59;-16276.47;;;-145.25;100.00
54146;BME280;65909;49.422;7.738;2023-05-09T03:33:25;-16276.47;;;-145.25;100.00
54146;BME280;65909;49.422;7.738;2023-05-09T03:35:50;-16276.47;;;-145.25;100.00
54146;BME280;65909;49.422;7.738;2023-05-09T03:38:16;-16276.47;;;-145.25;100.00
54146;BME280;65909;49.422;7.738;2023-05-09T03:40:44;-16276.47;;;-145.25;100.00
54146;BME280;65909;49.422;7.738;2023-05-09T03:43:09;-16276.47;;;-145.25;100.00
54146;BME280;65909;49.422;7.738;2023-05-09T03:45:35;-16276.47;;;-145.25;100.00
54146;BME280;65909;49.422;7.738;2023-05-09T03:48:02;-16276.47;;;-145.25;100.00
54146;BME280;65909;49.422;7.738;2023-05-09T03:50:29;-16276.47;;;-145.25;100.00
54146;BME280;65909;49.422;7.738;2023-05-09T03:52:54;-16276.47;;;-145.25;100.00
54146;BME280;65909;49.422;7.738;2023-05-09T03:55:21;-16276.47;;;-145.25;100.00
54146;BME280;65909;49.422;7.738;2023-05-09T03:57:48;-16276.47;;;-145.25;100.00
54146;BME280;65909;49.422;7.738;2023-05-09T04:00:13;-16276.47;;;-145.25;100.00
54146;BME280;65909;49.422;7.738;2023-05-09T04:02:39;-16276.47;;;-145.25;100.00
54146;BME280;65909;49.422;7.738;2023-05-09T04:05:05;-16276.47;;;-145.25;100.00
54146;BME280;65909;49.422;7.738;2023-05-09T04:07:30;-16276.47;;;-145.25;100.00
54146;BME280;65909;49.422;7.738;2023-05-09T04:09:56;-16276.47;;;-145.25;100.00
54146;BME280;65909;49.422;7.738;2023-05-09T04:12:21;-16276.47;;;-145.25;100.00
54146;BME280;65909;49.422;7.738;2023-05-09T04:14:47;-16276.47;;;-145.25;100.00
54146;BME280;65909;49.422;7.738;2023-05-09T04:17:12;-16276.47;;;-145.25;100.00
54146;BME280;65909;49.422;7.738;2023-05-09T04:19:37;-16276.47;;;-145.25;100.00
54146;BME280;65909;49.422;7.738;2023-05-09T04:22:03;-16276.47;;;-145.25;100.00
54146;BME280;65909;49.422;7.738;2023-05-09T04:24:28;-16276.47;;;-145.25;100.00
54146;BME280;65909;49.422;7.738;2023-05-09T04:26:53;-16276.47;;;-145.25;100.00
54146;BME280;65909;49.422;7.738;2023-05-09T04:29:19;-16276.47;;;-145.25;100.00
54146;BME280;65909;49.422;7.738;2023-05-09T04:31:44;-16276.47;;;-145.25;100.00
54146;BME280;65909;49.422;7.738;2023-05-09T04:34:10;-16276.47;;;-145.25;100.00
54146;BME280;65909;49.422;7.738;2023-05-09T04:36:36;-16276.47;;;-145.25;100.00
54146;BME280;65909;49.422;7.738;2023-05-09T04:39:01;-16276.47;;;-145.25;100.00
54146;BME280;65909;49.422;7.738;2023-05-09T04:41:26;-16276.47;;;-145.25;100.00
54146;BME280;65909;49.422;7.738;2023-05-09T04:43:52;-16276.47;;;-145.25;100.00
54146;BME280;65909;49.422;7.738;2023-05-09T04:46:17;-16276.47;;;-145.25;100.00
54146;BME280;65909;49.422;7.738;2023-05-09T04:48:42;-16276.47;;;-145.25;100.00
54146;BME280;65909;49.422;7.738;2023-05-09T04:51:08;-16276.47;;;-145.25;100.00
54146;BME280;65909;49.422;7.738;2023-05-09T04:53:33;-16276.47;;;-145.25;100.00
54146;BME280;65909;49.422;7.738;2023-05-09T04:55:58;-16276.47;;;-145.25;100.00
54146;BME280;65909;49.422;7.738;2023-05-09T04:58:24;-16276.47;;;-145.25;100.00
54146;BME280;65909;49.422;7.738;2023-05-09T05:00:51;-16276.47;;;-145.25;100.00
54146;BME280;65909;49.422;7.738;2023-05-09T05:03:17;-16276.47;;;-145.25;100.00
54146;BME280;65909;49.422;7.738;2023-05-09T05:05:42;-16276.47;;;-145.25;100.00
54146;BME280;65909;49.422;7.738;2023-05-09T05:08:07;-16276.47;;;-145.25;100.00
54146;BME280;65909;49.422;7.738;2023-05-09T05:10:33;-16276.47;;;-145.25;100.00
54146;BME280;65909;49.422;7.738;2023-05-09T05:12:58;-16276.47;;;-145.25;100.00
54146;BME280;65909;49.422;7.738;2023-05-09T05:15:24;-16276.47;;;-145.25;100.00
54146;BME280;65909;49.422;7.738;2023-05-09T05:17:51;-16276.47;;;-145.25;100.00
54146;BME280;65909;49.422;7.738;2023-05-09T05:20:16;-16276.47;;;-145.25;100.00
54146;BME280;65909;49.422;7.738;2023-05-09T05:22:42;-16276.47;;;-145.25;100.00
54146;BME280;65909;49.422;7.738;2023-05-09T05:25:07;-16276.47;;;-145.25;100.00
54146;BME280;65909;49.422;7.738;2023-05-09T05:27:33;-16276.47;;;-145.25;100.00
54146;BME280;65909;49.422;7.738;2023-05-09T05:29:58;-16276.47;;;-145.25;100.00
54146;BME280;65909;49.422;7.738;2023-05-09T05:32:23;-16276.47;;;-145.25;100.00
54146;BME280;65909;49.422;7.738;2023-05-09T05:34:49;-16276.47;;;-145.25;100.00
54146;BME280;65909;49.422;7.738;2023-05-09T05:37:14;-16276.47;;;-145.25;100.00
54146;BME280;65909;49.422;7.738;2023-05-09T05:39:40;-16276.47;;;-145.25;100.00
54146;BME280;65909;49.422;7.738;2023-05-09T05:42:05;-16276.47;;;-145.25;100.00
54146;BME280;65909;49.422;7.738;2023-05-09T05:44:30;-16276.47;;;-145.25;100.00
54146;BME280;65909;49.422;7.738;2023-05-09T05:46:56;-16276.47;;;-145.25;100.00
54146;BME280;65909;49.422;7.738;2023-05-09T05:49:21;-16276.47;;;-145.25;100.00
54146;BME280;65909;49.422;7.738;2023-05-09T05:51:49;-16276.47;;;-145.25;100.00
54146;BME280;65909;49.422;7.738;2023-05-09T05:54:14;-16276.47;;;-145.25;100.00
54146;BME280;65909;49.422;7.738;2023-05-09T05:56:40;-16276.47;;;-145.25;100.00
54146;BME280;65909;49.422;7.738;2023-05-09T05:59:05;-16276.47;;;-145.25;100.00
54146;BME280;65909;49.422;7.738;2023-05-09T06:01:30;-16276.47;;;-145.25;100.00
54146;BME280;65909;49.422;7.738;2023-05-09T06:03:56;-16276.47;;;-145.25;100.00
54146;BME280;65909;49.422;7.738;2023-05-09T06:06:21;-16276.47;;;-145.25;100.00
54146;BME280;65909;49.422;7.738;2023-05-09T06:08:47;-16276.47;;;-145.25;100.00
54146;BME280;65909;49.422;7.738;2023-05-09T06:11:16;-16276.47;;;-145.25;100.00
54146;BME280;65909;49.422;7.738;2023-05-09T06:13:41;-16276.47;;;-145.25;100.00
54146;BME280;65909;49.422;7.738;2023-05-09T06:16:07;-16276.47;;;-145.25;100.00
54146;BME280;65909;49.422;7.738;2023-05-09T06:18:36;-16276.47;;;-145.25;100.00
54146;BME280;65909;49.422;7.738;2023-05-09T06:21:04;-16276.47;;;-145.25;100.00
54146;BME280;65909;49.422;7.738;2023-05-09T06:23:29;-16276.47;;;-145.25;100.00
54146;BME280;65909;49.422;7.738;2023-05-09T06:25:55;-16276.47;;;-145.25;100.00
54146;BME280;65909;49.422;7.738;2023-05-09T06:28:20;-16276.47;;;-145.25;100.00
54146;BME280;65909;49.422;7.738;2023-05-09T06:30:46;-16276.47;;;-145.25;100.00
54146;BME280;65909;49.422;7.738;2023-05-09T06:33:11;-16276.47;;;-145.25;100.00
54146;BME280;65909;49.422;7.738;2023-05-09T06:35:36;-16276.47;;;-145.25;100.00
54146;BME280;65909;49.422;7.738;2023-05-09T06:38:02;-16276.47;;;-145.25;100.00
54146;BME280;65909;49.422;7.738;2023-05-09T06:40:27;-16276.47;;;-145.25;100.00
54146;BME280;65909;49.422;7.738;2023-05-09T06:42:53;-16276.47;;;-145.25;100.00
54146;BME280;65909;49.422;7.738;2023-05-09T06:45:18;-16276.47;;;-145.25;100.00
54146;BME280;65909;49.422;7.738;2023-05-09T06:47:43;-16276.47;;;-145.25;100.00
54146;BME280;65909;49.422;7.738;2023-05-09T06:50:09;-16276.47;;;-145.25;100.00
54146;BME280;65909;49.422;7.738;2023-05-09T06:52:34;-16276.47;;;-145.25;100.00
54146;BME280;65909;49.422;7.738;2023-05-09T06:55:00;-16276.47;;;-145.25;100.00
54146;BME280;65909;49.422;7.738;2023-05-09T06:57:25;-16276.47;;;-145.25;100.00
54146;BME280;65909;49.422;7.738;2023-05-09T06:59:51;-16276.47;;;-145.25;100.00
54146;BME280;65909;49.422;7.738;2023-05-09T07:02:16;-16276.47;;;-145.25;100.00
54146;BME280;65909;49.422;7.738;2023-05-09T07:04:42;-16276.47;;;-145.25;100.00
54146;BME280;65909;49.422;7.738;2023-05-09T07:07:07;-16276.47;;;-145.25;100.00
54146;BME280;65909;49.422;7.738;2023-05-09T07:09:32;-16276.47;;;-145.25;100.00
54146;BME280;65909;49.422;7.738;2023-05-09T07:11:59;-16276.47;;;-145.25;100.00
54146;BME280;65909;49.422;7.738;2023-05-09T07:14:25;-16276.47;;;-145.25;100.00
54146;BME280;65909;49.422;7.738;2023-05-09T07:16:51;-16276.47;;;-145.25;100.00
54146;BME280;65909;49.422;7.738;2023-05-09T07:19:16;-16276.47;;;-145.25;100.00
54146;BME280;65909;49.422;7.738;2023-05-09T07:21:41;-16276.47;;;-145.25;100.00
54146;BME280;65909;49.422;7.738;2023-05-09T07:24:07;-16276.47;;;-145.25;100.00
54146;BME280;65909;49.422;7.738;2023-05-09T07:26:34;-16276.47;;;-145.25;100.00
54146;BME280;65909;49.422;7.738;2023-05-09T07:28:59;-16276.47;;;-145.25;100.00
54146;BME280;65909;49.422;7.738;2023-05-09T07:31:25;-16276.47;;;-145.25;100.00
54146;BME280;65909;49.422;7.738;2023-05-09T07:33:50;-16276.47;;;-145.25;100.00
54146;BME280;65909;49.422;7.738;2023-05-09T07:36:15;-16276.47;;;-145.25;100.00
54146;BME280;65909;49.422;7.738;2023-05-09T07:38:41;-16276.47;;;-145.25;100.00
54146;BME280;65909;49.422;7.738;2023-05-09T07:41:07;-16276.47;;;-145.25;100.00
54146;BME280;65909;49.422;7.738;2023-05-09T07:43:32;-16276.47;;;-145.25;100.00
54146;BME280;65909;49.422;7.738;2023-05-09T07:45:58;-16276.47;;;-145.25;100.00
54146;BME280;65909;49.422;7.738;2023-05-09T07:48:23;-16276.47;;;-145.25;100.00
54146;BME280;65909;49.422;7.738;2023-05-09T07:50:48;-16276.47;;;-145.25;100.00
54146;BME280;65909;49.422;7.738;2023-05-09T07:53:14;-16276.47;;;-145.25;100.00
54146;BME280;65909;49.422;7.738;2023-05-09T07:55:39;-16276.47;;;-145.25;100.00
54146;BME280;65909;49.422;7.738;2023-05-09T07:58:05;-16276.47;;;-145.25;100.00
54146;BME280;65909;49.422;7.738;2023-05-09T08:00:30;-16276.47;;;-145.25;100.00
54146;BME280;65909;49.422;7.738;2023-05-09T08:02:55;-16276.47;;;-145.25;100.00
54146;BME280;65909;49.422;7.738;2023-05-09T08:05:21;-16276.47;;;-145.25;100.00
54146;BME280;65909;49.422;7.738;2023-05-09T08:07:46;-16276.47;;;-145.25;100.00
54146;BME280;65909;49.422;7.738;2023-05-09T08:10:11;-16276.47;;;-145.25;100.00
54146;BME280;65909;49.422;7.738;2023-05-09T08:12:37;-16276.47;;;-145.25;100.00
54146;BME280;65909;49.422;7.738;2023-05-09T08:15:03;-16276.47;;;-145.25;100.00
54146;BME280;65909;49.422;7.738;2023-05-09T08:17:29;-16276.47;;;-145.25;100.00
54146;BME280;65909;49.422;7.738;2023-05-09T08:19:54;-16276.47;;;-145.25;100.00
54146;BME280;65909;49.422;7.738;2023-05-09T08:22:20;-16276.47;;;-145.25;100.00
54146;BME280;65909;49.422;7.738;2023-05-09T08:24:46;-16276.47;;;-145.25;100.00
54146;BME280;65909;49.422;7.738;2023-05-09T08:27:12;-16276.47;;;-145.25;100.00
54146;BME280;65909;49.422;7.738;2023-05-09T08:29:41;-16276.47;;;-145.25;100.00
54146;BME280;65909;49.422;7.738;2023-05-09T08:32:07;-16276.47;;;-145.25;100.00
54146;BME280;65909;49.422;7.738;2023-05-09T08:34:32;-16276.47;;;-145.25;100.00
54146;BME280;65909;49.422;7.738;2023-05-09T08:37:01;-16276.47;;;-145.25;100.00
54146;BME280;65909;49.422;7.738;2023-05-09T08:39:28;-16276.47;;;-145.25;100.00
54146;BME280;65909;49.422;7.738;2023-05-09T08:41:59;-16276.47;;;-145.25;100.00
54146;BME280;65909;49.422;7.738;2023-05-09T08:44:25;-16276.47;;;-145.25;100.00
54146;BME280;65909;49.422;7.738;2023-05-09T08:46:54;-16276.47;;;-145.25;100.00
54146;BME280;65909;49.422;7.738;2023-05-09T08:49:20;-16276.47;;;-145.25;100.00
54146;BME280;65909;49.422;7.738;2023-05-09T08:51:49;-16276.47;;;-145.25;100.00
54146;BME280;65909;49.422;7.738;2023-05-09T08:54:15;-16276.47;;;-145.25;100.00
54146;BME280;65909;49.422;7.738;2023-05-09T08:56:41;-16276.47;;;-145.25;100.00
54146;BME280;65909;49.422;7.738;2023-05-09T08:59:07;-16276.47;;;-145.25;100.00
54146;BME280;65909;49.422;7.738;2023-05-09T09:01:33;-16276.47;;;-145.25;100.00
54146;BME280;65909;49.422;7.738;2023-05-09T09:04:07;-16276.47;;;-145.25;100.00
54146;BME280;65909;49.422;7.738;2023-05-09T09:06:34;-16276.47;;;-145.25;100.00
54146;BME280;65909;49.422;7.738;2023-05-09T09:09:00;-16276.47;;;-145.25;100.00
54146;BME280;65909;49.422;7.738;2023-05-09T09:11:29;-16276.47;;;-145.25;100.00
54146;BME280;65909;49.422;7.738;2023-05-09T09:13:57;-16276.47;;;-145.25;100.00
54146;BME280;65909;49.422;7.738;2023-05-09T09:16:26;-16276.47;;;-145.25;100.00
54146;BME280;65909;49.422;7.738;2023-05-09T09:18:54;-16276.47;;;-145.25;100.00
54146;BME280;65909;49.422;7.738;2023-05-09T09:21:19;-16276.47;;;-145.25;100.00
54146;BME280;65909;49.422;7.738;2023-05-09T09:23:46;-16276.47;;;-145.25;100.00
54146;BME280;65909;49.422;7.738;2023-05-09T09:26:12;-16276.47;;;-145.25;100.00
54146;BME280;65909;49.422;7.738;2023-05-09T09:28:38;-16276.47;;;-145.25;100.00
54146;BME280;65909;49.422;7.738;2023-05-09T09:31:21;-16276.47;;;-145.25;100.00
54146;BME280;65909;49.422;7.738;2023-05-09T09:33:47;-16276.47;;;-145.25;100.00
54146;BME280;65909;49.422;7.738;2023-05-09T09:36:13;-16276.47;;;-145.25;100.00
54146;BME280;65909;49.422;7.738;2023-05-09T09:38:40;-16276.47;;;-145.25;100.00
54146;BME280;65909;49.422;7.738;2023-05-09T09:41:08;-16276.47;;;-145.25;100.00
54146;BME280;65909;49.422;7.738;2023-05-09T09:43:35;-16276.47;;;-145.25;100.00
54146;BME280;65909;49.422;7.738;2023-05-09T09:46:01;-16276.47;;;-145.25;100.00
54146;BME280;65909;49.422;7.738;2023-05-09T09:48:32;-16276.47;;;-145.25;100.00
54146;BME280;65909;49.422;7.738;2023-05-09T09:51:07;-16276.47;;;-145.25;100.00
54146;BME280;65909;49.422;7.738;2023-05-09T09:53:39;-16276.47;;;-145.25;100.00
54146;BME280;65909;49.422;7.738;2023-05-09T09:56:05;-16276.47;;;-145.25;100.00
54146;BME280;65909;49.422;7.738;2023-05-09T09:58:30;-16276.47;;;-145.25;100.00
54146;BME280;65909;49.422;7.738;2023-05-09T10:01:11;-16276.47;;;-145.25;100.00
54146;BME280;65909;49.422;7.738;2023-05-09T10:03:45;-16276.47;;;-145.25;100.00
54146;BME280;65909;49.422;7.738;2023-05-09T10:06:12;-16276.47;;;-145.25;100.00
54146;BME280;65909;49.422;7.738;2023-05-09T10:08:38;-16276.47;;;-145.25;100.00
54146;BME280;65909;49.422;7.738;2023-05-09T10:11:04;-16276.47;;;-145.25;100.00
54146;BME280;65909;49.422;7.738;2023-05-09T10:13:30;-16276.47;;;-145.25;100.00
54146;BME280;65909;49.422;7.738;2023-05-09T10:15:56;-16276.47;;;-145.25;100.00
54146;BME280;65909;49.422;7.738;2023-05-09T10:18:26;-16276.47;;;-145.25;100.00
54146;BME280;65909;49.422;7.738;2023-05-09T10:20:52;-16276.47;;;-145.25;100.00
54146;BME280;65909;49.422;7.738;2023-05-09T10:23:18;-16276.47;;;-145.25;100.00
54146;BME280;65909;49.422;7.738;2023-05-09T10:26:04;-16276.47;;;-145.25;100.00
54146;BME280;65909;49.422;7.738;2023-05-09T10:28:34;-16276.47;;;-145.25;100.00
54146;BME280;65909;49.422;7.738;2023-05-09T10:31:21;-16276.47;;;-145.25;100.00
54146;BME280;65909;49.422;7.738;2023-05-09T10:33:49;-16276.47;;;-145.25;100.00
54146;BME280;65909;49.422;7.738;2023-05-09T10:36:17;-16276.47;;;-145.25;100.00
54146;BME280;65909;49.422;7.738;2023-05-09T10:38:42;-16276.47;;;-145.25;100.00
54146;BME280;65909;49.422;7.738;2023-05-09T10:41:09;-16276.47;;;-145.25;100.00
54146;BME280;65909;49.422;7.738;2023-05-09T10:43:36;-16276.47;;;-145.25;100.00
54146;BME280;65909;49.422;7.738;2023-05-09T10:46:05;-16276.47;;;-145.25;100.00
54146;BME280;65909;49.422;7.738;2023-05-09T10:48:35;-16276.47;;;-145.25;100.00
54146;BME280;65909;49.422;7.738;2023-05-09T10:51:01;-16276.47;;;-145.25;100.00
54146;BME280;65909;49.422;7.738;2023-05-09T10:53:47;-16276.47;;;-145.25;100.00
54146;BME280;65909;49.422;7.738;2023-05-09T10:56:29;-16276.47;;;-145.25;100.00
54146;BME280;65909;49.422;7.738;2023-05-09T10:58:56;-16276.47;;;-145.25;100.00
54146;BME280;65909;49.422;7.738;2023-05-09T11:01:29;-16276.47;;;-145.25;100.00
54146;BME280;65909;49.422;7.738;2023-05-09T11:04:00;-16276.47;;;-145.25;100.00
54146;BME280;65909;49.422;7.738;2023-05-09T11:09:29;-16276.47;;;-145.25;100.00
54146;BME280;65909;49.422;7.738;2023-05-09T11:11:59;-16276.47;;;-145.25;100.00
54146;BME280;65909;49.422;7.738;2023-05-09T11:14:28;20598.16;;;-145.25;100.00
54146;BME280;65909;49.422;7.738;2023-05-09T11:22:16;30179.13;;;-145.25;100.00
54146;BME280;65909;49.422;7.738;2023-05-09T11:24:46;27978.25;;;-145.25;100.00
54146;BME280;65909;49.422;7.738;2023-05-09T11:27:17;30232.63;;;-145.25;100.00
54146;BME280;65909;49.422;7.738;2023-05-09T11:29:45;38760.75;;;-145.25;100.00
54146;BME280;65909;49.422;7.738;2023-05-09T11:32:12;47114.38;;;-145.25;100.00
54146;BME280;65909;49.422;7.738;2023-05-09T11:34:42;48420.13;;;-145.25;100.00
54146;BME280;65909;49.422;7.738;2023-05-09T11:37:09;48428.06;;;-145.25;100.00
54146;BME280;65909;49.422;7.738;2023-05-09T11:39:54;48432.06;;;-145.25;100.00
54146;BME280;65909;49.422;7.738;2023-05-09T11:42:22;48432.06;;;-145.25;100.00
54146;BME280;65909;49.422;7.738;2023-05-09T11:44:47;48434.03;;;-145.25;100.00
54146;BME280;65909;49.422;7.738;2023-05-09T11:47:13;48432.06;;;-145.25;100.00
54146;BME280;65909;49.422;7.738;2023-05-09T11:49:42;48430.06;;;-145.25;100.00
54146;BME280;65909;49.422;7.738;2023-05-09T11:52:07;48436.03;;;-145.25;100.00
54146;BME280;65909;49.422;7.738;2023-05-09T11:54:36;48432.06;;;-145.25;100.00
54146;BME280;65909;49.422;7.738;2023-05-09T11:57:02;48434.03;;;-145.25;100.00
54146;BME280;65909;49.422;7.738;2023-05-09T11:59:27;48426.09;;;-145.25;100.00
54146;BME280;65909;49.422;7.738;2023-05-09T12:04:18;48318.59;;;-145.25;100.00
54146;BME280;65909;49.422;7.738;2023-05-09T12:06:47;48314.59;;;-145.25;100.00
54146;BME280;65909;49.422;7.738;2023-05-09T12:09:13;48304.66;;;-145.25;100.00
54146;BME280;65909;49.422;7.738;2023-05-09T12:11:49;48306.63;;;-145.25;100.00
54146;BME280;65909;49.422;7.738;2023-05-09T12:14:27;47494.50;;;-145.25;100.00
54146;BME280;65909;49.422;7.738;2023-05-09T12:16:53;47188.00;;;-145.25;100.00
54146;BME280;65909;49.422;7.738;2023-05-09T12:19:18;46306.47;;;-145.25;100.00
54146;BME280;65909;49.422;7.738;2023-05-09T12:21:43;46905.41;;;-145.25;100.00
54146;BME280;65909;49.422;7.738;2023-05-09T12:24:09;46963.13;;;-145.25;100.00
54146;BME280;65909;49.422;7.738;2023-05-09T12:26:34;40959.75;;;-145.25;100.00
54146;BME280;65909;49.422;7.738;2023-05-09T12:29:00;44154.19;;;-145.25;100.00
54146;BME280;65909;49.422;7.738;2023-05-09T12:31:26;35199.66;;;-145.25;100.00
54146;BME280;65909;49.422;7.738;2023-05-09T12:33:51;30906.44;;;-145.25;100.00
54146;BME280;65909;49.422;7.738;2023-05-09T12:36:17;28075.28;;;-145.25;100.00
54146;BME280;65909;49.422;7.738;2023-05-09T12:38:55;18781.97;;;-145.25;100.00